Impacts TAF Board
For situational awareness. Not to be used for flight planning purposes.
IDs:

KBWI - Baltimore-Washington, MD, US

Issued at 1743 UTC 18 Jun 2019
Updated at 1907 UTC 18 Jun 2019
Potential Impact None Slight Moderate High
Time1854Z 18/20Z 18/21Z 18/22Z 18/23Z 19/00Z 19/01Z 19/02Z 19/03Z 19/04Z 19/05Z 19/06Z 19/07Z 19/08Z>>
Type OBS PRVL PRVL PRVL PRVL PRVL PRVL PRVL PRVL PRVL PRVL PRVL PRVL PRVL
VIS 10 5 5 5 5 5 5 5 >6 >6 >6 >6 >6 >6
CIG 110 35 35 35 35 35 35 35 35 35 35 35 35 35
Cover BKN OVC OVC OVC OVC OVC OVC OVC OVC OVC OVC OVC OVC OVC
FltCat VFR MVFR MVFR MVFR MVFR MVFR MVFR MVFR VFR VFR VFR VFR VFR VFR
WX -- -SHRA VCTS -SHRA VCTS -SHRA VCTS -SHRA VCTS -SHRA VCTS -SHRA VCTS -SHRA VCTS -SHRA -SHRA -SHRA -SHRA -SHRA -SHRA
WDir 260 230 230 230 230 230 230 230 VRB VRB VRB VRB VRB VRB
WSpd 7 5 5 5 5 5 5 5 3 3 3 3 3 3
WGst -- -- -- -- -- -- -- -- -- -- -- -- -- --
Raw TAF
KBWI 181743Z 1818/1924 23005KT 5SM -SHRA VCTS SCT030CB OVC035
  FM190300 VRB03KT P6SM -SHRA SCT020 OVC035
  FM190900 VRB03KT P6SM -SHRA SCT015 OVC020
  FM191400 20004KT P6SM OVC020
  FM191700 18005KT P6SM SCT025 OVC045
  FM192300 17005KT 6SM -SHRA VCTS SCT025CB OVC030


Raw METAR
KBWI 181854Z 26007KT 10SM SCT048TCU BKN110 BKN160 BKN250 28/23 A2988 RMK AO2 RAB02E31 SLP117 CB DSNT E MOV E TCU NE-S P0018 T02780228
KBWI 181841Z 25005KT 10SM FEW033 SCT048CB BKN110 BKN160 BKN250 27/23 A2989 RMK AO2 RAB02E31 CB E MOV E P0018 T02670228
KBWI 181824Z 22006KT 4SM R10/2800VP6000FT RA SCT026 SCT048CB BKN110 BKN160 BKN250 24/21 A2990 RMK AO2 LTG DSNT N RAB02 CB OHD-E MOV E P0018 T02390206
KBWI 181822Z 23007G24KT 2 1/2SM R10/2800VP6000FT +RA SCT023 BKN045CB OVC110 23/21 A2990 RMK AO2 LTG DSNT N RAB02 CB OHD MOV E P0014 T02330206
KBWI 181818Z 25012G24KT 1 1/4SM R10/2800VP6000FT +RA SCT023 BKN045CB OVC110 24/21 A2991 RMK AO2 LTG DSNT N RAB02 CB OHD MOV E P0003 T02440206
KBWI 181816Z 28016G24KT 2 1/2SM R10/2800VP6000FT -RA SCT023 BKN045CB OVC110 25/20 A2991 RMK AO2 RAB02 CB OHD MOV E P0000 T02500200
KBWI 181754Z COR 27011KT 10SM SCT028 SCT041CB BKN110 BKN250 29/21 A2990 RMK AO2 SLP123 CB W MOV E TCU DSNT ALQDS T02940211 10300 20233 58007
KBWI 181654Z 20005KT 10SM FEW035 SCT045TCU BKN110 BKN160 BKN250 28/23 A2991 RMK AO2 SLP127 TCU W AND N T02830233

METAR Board
Radar Display
Forecast Discussion
For situational awareness. Not to be used for flight planning purposes.